createdAt,value
2024-01-17T00:00:21.883Z,6.80
2024-01-17T00:02:50.543Z,6.00
2024-01-17T00:05:19.110Z,6.03
2024-01-17T00:07:48.862Z,6.72
2024-01-17T00:10:17.634Z,6.25
2024-01-17T00:12:46.013Z,7.05
2024-01-17T00:15:14.556Z,5.82
2024-01-17T00:17:42.951Z,5.65
2024-01-17T00:20:12.003Z,6.60
2024-01-17T00:22:40.597Z,7.10
2024-01-17T00:25:11.030Z,6.03
2024-01-17T00:27:39.360Z,6.95
2024-01-17T00:30:09.541Z,6.45
2024-01-17T00:32:38.168Z,7.65
2024-01-17T00:35:09.648Z,6.10
2024-01-17T00:37:38.135Z,7.35
2024-01-17T00:40:07.298Z,5.80
2024-01-17T00:42:37.064Z,6.28
2024-01-17T00:45:07.995Z,6.90
2024-01-17T00:47:37.383Z,6.45
2024-01-17T00:50:07.090Z,5.95
2024-01-17T00:52:35.489Z,6.45
2024-01-17T00:55:03.896Z,5.70
2024-01-17T00:57:32.304Z,6.20
2024-01-17T01:00:02.324Z,5.60
2024-01-17T01:02:30.773Z,5.97
2024-01-17T01:04:59.410Z,6.43
2024-01-17T01:07:27.709Z,6.20
2024-01-17T01:09:57.527Z,5.80
2024-01-17T01:12:26.207Z,6.60
2024-01-17T01:14:54.642Z,5.78
2024-01-17T01:17:24.517Z,6.28
2024-01-17T01:19:52.956Z,6.63
2024-01-17T01:22:22.500Z,7.05
2024-01-17T01:24:50.886Z,6.50
2024-01-17T01:27:19.193Z,7.60
2024-01-17T01:29:47.643Z,7.93
2024-01-17T01:32:16.060Z,6.82
2024-01-17T01:34:45.921Z,6.50
2024-01-17T01:37:14.312Z,5.18
2024-01-17T01:39:42.683Z,5.88
2024-01-17T01:42:11.085Z,6.60
2024-01-17T01:44:39.516Z,6.53
2024-01-17T01:47:09.213Z,7.18
2024-01-17T01:49:38.584Z,6.18
2024-01-17T01:52:08.654Z,6.72
2024-01-17T01:54:36.993Z,6.35
2024-01-17T01:57:05.862Z,6.00
2024-01-17T01:59:34.355Z,6.95
2024-01-17T02:02:05.814Z,7.03
2024-01-17T02:04:34.365Z,7.22
2024-01-17T02:07:03.156Z,6.53
2024-01-17T02:09:33.817Z,6.28
2024-01-17T02:12:02.471Z,6.85
2024-01-17T02:14:31.294Z,6.47
2024-01-17T02:16:59.735Z,6.65
2024-01-17T02:19:28.219Z,6.43
2024-01-17T02:21:56.625Z,6.68
2024-01-17T02:24:29.838Z,6.82
2024-01-17T02:27:01.302Z,6.95
2024-01-17T02:29:30.205Z,6.88
2024-01-17T02:31:59.172Z,7.32
2024-01-17T02:34:27.822Z,7.28
2024-01-17T02:36:56.237Z,7.00
2024-01-17T02:39:26.490Z,7.63
2024-01-17T02:41:54.959Z,7.43
2024-01-17T02:44:23.443Z,6.63
2024-01-17T02:46:51.810Z,5.95
2024-01-17T02:49:21.206Z,6.40
2024-01-17T02:51:49.889Z,7.32
2024-01-17T02:54:18.315Z,8.13
2024-01-17T02:56:48.159Z,6.43
2024-01-17T02:59:16.846Z,7.25
2024-01-17T03:01:47.433Z,7.55
2024-01-17T03:04:16.535Z,6.47
2024-01-17T03:06:47.010Z,6.18
2024-01-17T03:09:15.898Z,6.45
2024-01-17T03:11:44.459Z,7.10
2024-01-17T03:14:14.341Z,7.93
2024-01-17T03:16:42.800Z,6.25
2024-01-17T03:19:12.098Z,5.97
2024-01-17T03:21:47.578Z,5.75
2024-01-17T03:24:16.290Z,6.50
2024-01-17T03:26:44.842Z,6.00
2024-01-17T03:29:14.599Z,6.10
2024-01-17T03:31:42.986Z,6.70
2024-01-17T03:34:11.479Z,6.30
2024-01-17T03:36:40.062Z,6.45
2024-01-17T03:39:08.821Z,5.50
2024-01-17T03:41:37.325Z,6.05
2024-01-17T03:44:05.922Z,5.88
2024-01-17T03:46:35.672Z,5.75
2024-01-17T03:49:04.196Z,5.65
2024-01-17T03:51:32.736Z,6.82
2024-01-17T03:54:01.399Z,6.03
2024-01-17T03:56:29.860Z,6.20
2024-01-17T03:58:58.301Z,5.68
2024-01-17T04:01:27.181Z,6.70
2024-01-17T04:03:56.903Z,6.40
2024-01-17T04:06:26.663Z,6.28
2024-01-17T04:08:55.934Z,5.78
2024-01-17T04:11:24.452Z,6.35
2024-01-17T04:13:53.131Z,5.80
2024-01-17T04:16:21.662Z,6.13
2024-01-17T04:18:50.333Z,5.85
2024-01-17T04:21:20.561Z,6.03
2024-01-17T04:23:49.937Z,5.63
2024-01-17T04:26:25.395Z,5.57
2024-01-17T04:28:54.052Z,6.47
2024-01-17T04:31:26.991Z,7.15
2024-01-17T04:33:56.087Z,6.22
2024-01-17T04:36:29.007Z,7.20
2024-01-17T04:38:57.652Z,6.95
2024-01-17T04:41:26.410Z,7.60
2024-01-17T04:43:54.829Z,6.45
2024-01-17T04:46:23.221Z,7.00
2024-01-17T04:48:51.993Z,6.70
2024-01-17T04:51:23.282Z,6.32
2024-01-17T04:53:53.380Z,8.07
2024-01-17T04:56:21.768Z,6.57
2024-01-17T04:58:52.297Z,9.25
2024-01-17T05:01:20.723Z,8.63
2024-01-17T05:03:49.480Z,7.13
2024-01-17T05:06:18.194Z,7.63
2024-01-17T05:08:46.767Z,7.05
2024-01-17T05:11:21.997Z,8.30
2024-01-17T05:13:50.456Z,6.82
2024-01-17T05:16:19.476Z,7.45
2024-01-17T05:18:48.134Z,8.07
2024-01-17T05:21:16.660Z,8.25
2024-01-17T05:23:45.083Z,8.63
2024-01-17T05:26:14.890Z,8.40
2024-01-17T05:28:43.243Z,7.72
2024-01-17T05:31:12.247Z,8.18
2024-01-17T05:33:40.731Z,6.93
2024-01-17T05:36:09.448Z,7.22
2024-01-17T05:38:37.868Z,6.18
2024-01-17T05:41:06.361Z,7.53
2024-01-17T05:43:36.435Z,7.80
2024-01-17T05:46:04.983Z,7.63
2024-01-17T05:48:33.605Z,7.15
2024-01-17T05:51:02.229Z,6.85
2024-01-17T05:53:30.681Z,6.57
2024-01-17T05:56:01.398Z,7.15
2024-01-17T05:58:30.637Z,6.85
2024-01-17T06:01:00.417Z,6.47
2024-01-17T06:03:28.870Z,6.65
2024-01-17T06:05:57.654Z,7.18
2024-01-17T06:08:25.976Z,7.15
2024-01-17T06:10:54.376Z,5.68
2024-01-17T06:13:22.839Z,7.68
2024-01-17T06:15:51.230Z,7.55
2024-01-17T06:18:21.076Z,6.60
2024-01-17T06:20:49.639Z,7.28
2024-01-17T06:23:21.180Z,6.68
2024-01-17T06:25:49.665Z,6.43
2024-01-17T06:28:19.422Z,6.22
2024-01-17T06:30:48.063Z,6.75
2024-01-17T06:33:16.821Z,6.80
2024-01-17T06:35:50.069Z,6.75
2024-01-17T06:38:18.680Z,5.88
2024-01-17T06:40:47.888Z,6.10
2024-01-17T06:43:16.453Z,6.63
2024-01-17T06:45:44.805Z,5.82
2024-01-17T06:48:13.498Z,6.20
2024-01-17T06:50:42.007Z,5.50
2024-01-17T06:53:12.913Z,5.15
2024-01-17T06:55:41.725Z,7.38
2024-01-17T06:58:10.274Z,6.78
2024-01-17T07:00:38.680Z,5.88
2024-01-17T07:03:07.363Z,6.03
2024-01-17T07:05:35.908Z,6.00
2024-01-17T07:08:05.000Z,6.00
2024-01-17T07:10:35.605Z,5.95
2024-01-17T07:13:04.179Z,6.55
2024-01-17T07:15:32.848Z,7.18
2024-01-17T07:18:01.563Z,5.55
2024-01-17T07:20:30.037Z,6.80
2024-01-17T07:22:58.480Z,6.10
2024-01-17T07:25:26.928Z,6.25
2024-01-17T07:27:56.643Z,5.57
2024-01-17T07:30:25.066Z,5.57
2024-01-17T07:32:53.760Z,5.53
2024-01-17T07:35:22.342Z,5.65
2024-01-17T07:37:51.789Z,6.32
2024-01-17T07:40:20.167Z,6.88
2024-01-17T07:42:48.671Z,5.65
2024-01-17T07:45:18.513Z,7.45
2024-01-17T07:47:47.144Z,6.05
2024-01-17T07:50:15.712Z,5.93
2024-01-17T07:52:44.008Z,7.18
2024-01-17T07:55:12.634Z,5.13
2024-01-17T08:00:35.526Z,7.35
2024-01-17T08:03:04.111Z,6.10
2024-01-17T08:05:34.556Z,6.28
2024-01-17T08:08:04.024Z,6.35
2024-01-17T08:10:32.602Z,8.85
2024-01-17T08:13:01.085Z,5.78
2024-01-17T08:15:29.688Z,7.20
2024-01-17T08:17:59.466Z,4.78
2024-01-17T08:20:28.057Z,6.55
2024-01-17T08:22:56.433Z,7.65
2024-01-17T08:25:26.267Z,4.93
2024-01-17T08:27:55.416Z,5.28
2024-01-17T08:30:23.824Z,5.25
2024-01-17T08:32:53.697Z,5.18
2024-01-17T08:35:24.100Z,6.75
2024-01-17T08:37:52.460Z,7.85
2024-01-17T08:40:20.828Z,6.32
2024-01-17T08:42:49.198Z,6.88
2024-01-17T08:45:19.595Z,7.10
2024-01-17T08:47:48.421Z,6.97
2024-01-17T08:50:16.906Z,6.30
2024-01-17T08:52:46.634Z,9.02
2024-01-17T08:55:15.048Z,6.60
2024-01-17T08:57:46.139Z,9.80
2024-01-17T09:00:16.572Z,5.95
2024-01-17T09:02:45.043Z,6.80
2024-01-17T09:05:13.986Z,6.65
2024-01-17T09:07:44.996Z,5.85
2024-01-17T09:10:14.950Z,6.05
2024-01-17T09:12:43.368Z,8.07
2024-01-17T09:15:12.299Z,5.75
2024-01-17T09:17:40.835Z,5.32
2024-01-17T09:20:11.192Z,5.38
2024-01-17T09:22:39.628Z,6.00
2024-01-17T09:25:09.590Z,4.55
2024-01-17T09:27:39.291Z,6.03
2024-01-17T09:30:10.307Z,6.43
2024-01-17T09:32:39.438Z,7.32
2024-01-17T09:35:09.556Z,6.32
2024-01-17T09:37:38.079Z,7.10
2024-01-17T09:40:07.537Z,6.25
2024-01-17T09:42:35.929Z,6.40
2024-01-17T09:45:07.492Z,6.90
2024-01-17T09:47:35.942Z,7.55
2024-01-17T09:50:04.744Z,7.10
2024-01-17T09:52:33.179Z,6.38
2024-01-17T09:55:02.763Z,6.45
2024-01-17T09:57:32.633Z,7.57
2024-01-17T10:00:07.531Z,6.13
2024-01-17T10:02:37.471Z,6.40
2024-01-17T10:05:06.433Z,6.60
2024-01-17T10:07:34.797Z,5.63
2024-01-17T10:10:03.178Z,6.35
2024-01-17T10:12:31.860Z,5.93
2024-01-17T10:15:07.207Z,6.50
2024-01-17T10:17:38.072Z,6.95
2024-01-17T10:20:08.252Z,6.18
2024-01-17T10:22:36.551Z,5.97
2024-01-17T10:25:06.556Z,5.40
2024-01-17T10:27:36.050Z,5.32
2024-01-17T10:30:05.943Z,5.30
2024-01-17T10:32:34.588Z,4.93
2024-01-17T10:35:08.221Z,5.93
2024-01-17T10:37:36.868Z,6.90
2024-01-17T10:40:12.167Z,6.35
2024-01-17T10:42:42.553Z,6.93
2024-01-17T10:45:20.679Z,6.10
2024-01-17T10:47:49.713Z,5.80
2024-01-17T10:50:21.676Z,6.05
2024-01-17T10:52:50.136Z,6.82
2024-01-17T10:55:18.905Z,5.28
2024-01-17T10:57:50.574Z,5.88
2024-01-17T11:00:27.455Z,31.10
2024-01-17T11:02:55.969Z,8.23
2024-01-17T11:05:26.070Z,6.15
2024-01-17T11:07:54.428Z,6.35
2024-01-17T11:10:22.969Z,5.38
2024-01-17T11:12:51.373Z,5.78
2024-01-17T11:15:19.937Z,6.20
2024-01-17T11:17:48.518Z,6.03
2024-01-17T11:20:17.014Z,5.90
2024-01-17T11:22:49.329Z,5.43
2024-01-17T11:25:23.071Z,6.20
2024-01-17T11:27:57.590Z,5.75
2024-01-17T11:30:37.711Z,6.40
2024-01-17T11:33:09.718Z,5.63
2024-01-17T11:35:48.328Z,5.30
2024-01-17T11:38:32.821Z,6.17
2024-01-17T11:41:06.735Z,6.30
2024-01-17T11:43:39.020Z,5.17
2024-01-17T11:46:09.666Z,5.90
2024-01-17T11:48:39.669Z,5.60
2024-01-17T11:51:16.743Z,5.87
2024-01-17T11:53:50.311Z,5.70
2024-01-17T11:56:21.598Z,5.00
2024-01-17T11:58:54.606Z,5.35
2024-01-17T12:01:41.148Z,5.50
2024-01-17T12:04:14.973Z,5.63
2024-01-17T12:06:44.023Z,5.55
2024-01-17T12:09:22.061Z,8.63
2024-01-17T12:11:53.103Z,7.60
2024-01-17T12:14:21.722Z,6.57
2024-01-17T12:16:51.058Z,6.53
2024-01-17T12:19:19.789Z,5.68
2024-01-17T12:21:49.425Z,6.20
2024-01-17T12:24:19.293Z,5.53
2024-01-17T12:26:48.502Z,5.30
2024-01-17T12:29:16.958Z,4.60
2024-01-17T12:31:45.282Z,5.75
2024-01-17T12:34:13.838Z,5.65
2024-01-17T12:36:42.349Z,5.90
2024-01-17T12:39:11.363Z,5.32
2024-01-17T12:41:41.217Z,5.50
2024-01-17T12:44:09.689Z,5.33
2024-01-17T12:46:38.218Z,4.82
2024-01-17T12:49:06.645Z,5.13
2024-01-17T12:51:35.839Z,4.35
2024-01-17T12:54:05.765Z,5.07
2024-01-17T12:56:34.505Z,5.28
2024-01-17T12:59:05.808Z,4.53
2024-01-17T13:01:36.347Z,4.50
2024-01-17T13:04:07.270Z,5.00
2024-01-17T13:06:46.696Z,4.47
2024-01-17T13:09:19.928Z,4.20
2024-01-17T13:11:50.649Z,4.47
2024-01-17T13:14:21.021Z,7.70
2024-01-17T13:16:49.586Z,38.10
2024-01-17T13:19:18.169Z,14.03
2024-01-17T13:21:48.714Z,7.47
2024-01-17T13:24:17.596Z,12.05
2024-01-17T13:26:46.305Z,23.17
2024-01-17T13:29:14.918Z,27.00
2024-01-17T13:31:46.239Z,11.20
2024-01-17T13:34:14.818Z,9.40
2024-01-17T13:36:43.369Z,17.35
2024-01-17T13:39:11.924Z,20.40
2024-01-17T13:41:42.866Z,8.32
2024-01-17T13:44:13.182Z,8.10
2024-01-17T13:46:41.737Z,8.60
2024-01-17T13:49:11.765Z,7.20
2024-01-17T13:51:46.962Z,7.25
2024-01-17T13:54:17.610Z,6.70
2024-01-17T13:56:46.122Z,6.90
2024-01-17T13:59:14.475Z,6.70
2024-01-17T14:01:42.791Z,6.47
2024-01-17T14:04:13.103Z,5.75
2024-01-17T14:06:41.822Z,5.60
2024-01-17T14:09:10.861Z,5.00
2024-01-17T14:11:41.477Z,6.05
2024-01-17T14:14:12.878Z,5.78
2024-01-17T14:16:42.094Z,5.75
2024-01-17T14:19:12.399Z,6.97
2024-01-17T14:21:40.781Z,5.53
2024-01-17T14:24:10.754Z,6.00
2024-01-17T14:26:42.118Z,6.65
2024-01-17T14:29:12.060Z,6.57
2024-01-17T14:31:40.400Z,6.85
2024-01-17T14:34:11.296Z,6.07
2024-01-17T14:36:41.771Z,7.13
2024-01-17T14:39:10.209Z,6.47
2024-01-17T14:41:39.611Z,6.90
2024-01-17T14:44:07.989Z,6.40
2024-01-17T14:46:36.346Z,7.50
2024-01-17T14:49:05.360Z,6.00
2024-01-17T14:51:33.834Z,5.97
2024-01-17T14:54:04.277Z,7.45
2024-01-17T14:56:32.953Z,6.55
2024-01-17T14:59:01.724Z,7.30
2024-01-17T15:01:30.103Z,7.30
2024-01-17T15:03:58.539Z,6.97
2024-01-17T15:06:27.954Z,7.10
2024-01-17T15:08:56.414Z,7.88
2024-01-17T15:11:26.652Z,7.32
2024-01-17T15:13:55.214Z,8.07
2024-01-17T15:16:23.869Z,7.57
2024-01-17T15:18:52.402Z,7.60
2024-01-17T15:21:21.041Z,7.60
2024-01-17T15:23:49.923Z,12.27
2024-01-17T15:26:18.520Z,10.98
2024-01-17T15:28:48.214Z,9.65
2024-01-17T15:31:16.799Z,8.35
2024-01-17T15:33:45.473Z,8.15
2024-01-17T15:36:13.942Z,8.23
2024-01-17T15:38:44.910Z,8.23
2024-01-17T15:41:16.095Z,8.40
2024-01-17T15:43:44.584Z,11.13
2024-01-17T15:46:14.325Z,7.90
2024-01-17T15:48:42.967Z,9.88
2024-01-17T15:51:11.510Z,15.75
2024-01-17T15:53:40.887Z,10.70
2024-01-17T15:56:09.212Z,8.85
2024-01-17T15:58:37.550Z,7.30
2024-01-17T16:01:06.583Z,8.25
2024-01-17T16:03:36.367Z,6.45
2024-01-17T16:06:06.002Z,7.18
2024-01-17T16:08:34.716Z,7.00
2024-01-17T16:11:03.950Z,7.50
2024-01-17T16:13:32.439Z,6.57
2024-01-17T16:16:02.214Z,7.57
2024-01-17T16:18:30.734Z,6.90
2024-01-17T16:21:00.889Z,6.93
2024-01-17T16:23:29.324Z,7.03
2024-01-17T16:25:57.662Z,7.10
2024-01-17T16:28:25.898Z,8.15
2024-01-17T16:30:56.204Z,8.85
2024-01-17T16:33:25.030Z,8.40
2024-01-17T16:35:53.746Z,8.35
2024-01-17T16:38:23.475Z,6.35
2024-01-17T16:40:51.717Z,7.63
2024-01-17T16:43:20.076Z,7.18
2024-01-17T16:45:48.432Z,7.50
2024-01-17T16:48:16.855Z,7.72
2024-01-17T16:50:45.770Z,10.80
2024-01-17T16:53:15.300Z,8.90
2024-01-17T16:55:45.244Z,8.32
2024-01-17T16:58:13.644Z,7.43
2024-01-17T17:00:42.000Z,7.63
2024-01-17T17:03:10.529Z,8.57
2024-01-17T17:05:39.499Z,7.47
2024-01-17T17:08:08.290Z,7.82
2024-01-17T17:10:37.679Z,7.57
2024-01-17T17:13:07.626Z,7.55
2024-01-17T17:15:36.096Z,7.35
2024-01-17T17:18:05.644Z,11.00
2024-01-17T17:20:34.125Z,6.53
2024-01-17T17:23:03.629Z,9.95
2024-01-17T17:25:32.025Z,8.20
2024-01-17T17:28:00.518Z,8.07
2024-01-17T17:30:30.231Z,10.32
2024-01-17T17:33:02.125Z,9.73
2024-01-17T17:35:31.633Z,10.75
2024-01-17T17:37:59.993Z,9.13
2024-01-17T17:40:28.360Z,8.02
2024-01-17T17:42:56.714Z,7.53
2024-01-17T17:45:25.202Z,10.02
2024-01-17T17:47:55.172Z,12.23
2024-01-17T17:50:23.767Z,10.40
2024-01-17T17:52:53.392Z,7.53
2024-01-17T17:55:21.749Z,7.80
2024-01-17T17:57:50.760Z,8.20
2024-01-17T18:00:21.569Z,8.32
2024-01-17T18:02:50.037Z,7.97
2024-01-17T18:05:19.900Z,8.18
2024-01-17T18:07:48.876Z,8.73
2024-01-17T18:10:17.189Z,10.15
2024-01-17T18:12:46.167Z,9.35
2024-01-17T18:15:16.516Z,8.57
2024-01-17T18:17:45.032Z,8.40
2024-01-17T18:20:13.539Z,12.02
2024-01-17T18:22:43.257Z,8.18
2024-01-17T18:25:14.100Z,8.70
2024-01-17T18:27:42.555Z,9.32
2024-01-17T18:30:12.126Z,9.90
2024-01-17T18:32:40.472Z,10.07
2024-01-17T18:35:09.758Z,8.50
2024-01-17T18:37:38.167Z,8.52
2024-01-17T18:40:12.403Z,8.60
2024-01-17T18:42:40.831Z,8.73
2024-01-17T18:45:10.064Z,8.90
2024-01-17T18:47:38.506Z,8.65
2024-01-17T18:50:08.257Z,9.52
2024-01-17T18:52:36.593Z,8.30
2024-01-17T18:55:05.595Z,9.35
2024-01-17T18:57:35.942Z,9.00
2024-01-17T19:00:04.980Z,10.75
2024-01-17T19:02:33.428Z,10.23
2024-01-17T19:05:02.115Z,9.85
2024-01-17T19:07:30.534Z,9.93
2024-01-17T19:09:58.857Z,14.05
2024-01-17T19:12:27.226Z,11.15
2024-01-17T19:14:57.002Z,10.00
2024-01-17T19:17:28.723Z,11.30
2024-01-17T19:19:57.235Z,11.65
2024-01-17T19:22:26.446Z,10.80
2024-01-17T19:24:55.279Z,11.80
2024-01-17T19:27:23.830Z,12.10
2024-01-17T19:29:52.238Z,12.38
2024-01-17T19:32:22.004Z,12.15
2024-01-17T19:34:50.451Z,11.05
2024-01-17T19:37:18.922Z,12.60
2024-01-17T19:39:47.340Z,10.98
2024-01-17T19:42:15.749Z,11.35
2024-01-17T19:44:44.256Z,11.85
2024-01-17T19:47:13.476Z,12.05
2024-01-17T19:49:43.345Z,11.77
2024-01-17T19:52:13.018Z,12.55
2024-01-17T19:54:42.012Z,11.90
2024-01-17T19:57:10.502Z,11.70
2024-01-17T19:59:38.882Z,11.25
2024-01-17T20:02:07.632Z,10.77
2024-01-17T20:04:36.012Z,10.82
2024-01-17T20:07:06.158Z,12.25
2024-01-17T20:09:34.667Z,12.73
2024-01-17T20:12:04.788Z,10.85
2024-01-17T20:14:33.543Z,11.80
2024-01-17T20:17:01.867Z,12.65
2024-01-17T20:19:31.316Z,13.18
2024-01-17T20:22:00.135Z,14.32
2024-01-17T20:24:30.577Z,13.23
2024-01-17T20:26:59.193Z,12.70
2024-01-17T20:29:27.552Z,13.57
2024-01-17T20:31:56.152Z,13.68
2024-01-17T20:34:25.442Z,13.65
2024-01-17T20:36:54.900Z,12.68
2024-01-17T20:39:30.433Z,14.18
2024-01-17T20:42:00.890Z,13.20
2024-01-17T20:44:31.324Z,12.95
2024-01-17T20:47:00.016Z,13.35
2024-01-17T20:49:28.602Z,14.25
2024-01-17T20:51:57.172Z,13.45
2024-01-17T20:54:25.679Z,14.88
2024-01-17T20:56:54.134Z,15.25
2024-01-17T20:59:24.844Z,13.82
2024-01-17T21:01:53.639Z,14.57
2024-01-17T21:04:21.982Z,12.48
2024-01-17T21:06:50.805Z,13.13
2024-01-17T21:09:19.257Z,14.85
2024-01-17T21:11:47.619Z,13.88
2024-01-17T21:14:16.093Z,12.43
2024-01-17T21:16:46.371Z,12.68
2024-01-17T21:19:14.927Z,13.50
2024-01-17T21:21:43.421Z,14.38
2024-01-17T21:24:12.229Z,16.30
2024-01-17T21:26:43.295Z,16.13
2024-01-17T21:29:13.735Z,14.27
2024-01-17T21:31:43.586Z,14.57
2024-01-17T21:34:13.637Z,13.40
2024-01-17T21:36:42.139Z,14.40
2024-01-17T21:39:11.770Z,13.70
2024-01-17T21:41:40.311Z,13.20
2024-01-17T21:44:09.413Z,14.52
2024-01-17T21:46:37.947Z,13.50
2024-01-17T21:49:06.503Z,14.48
2024-01-17T21:51:39.329Z,14.18
2024-01-17T21:54:07.958Z,12.70
2024-01-17T21:56:36.407Z,13.73
2024-01-17T21:59:05.035Z,14.38
2024-01-17T22:01:33.811Z,13.98
2024-01-17T22:04:02.252Z,12.85
2024-01-17T22:06:31.019Z,13.13
2024-01-17T22:09:01.780Z,13.55
2024-01-17T22:11:30.229Z,12.93
2024-01-17T22:13:58.812Z,13.55
2024-01-17T22:16:27.240Z,12.80
2024-01-17T22:18:55.686Z,12.25
2024-01-17T22:21:24.310Z,12.90
2024-01-17T22:23:52.857Z,13.52
2024-01-17T22:26:22.617Z,12.52
2024-01-17T22:28:50.980Z,13.30
2024-01-17T22:31:25.139Z,13.65
2024-01-17T22:33:54.235Z,14.23
2024-01-17T22:36:23.076Z,15.18
2024-01-17T22:38:51.608Z,15.02
2024-01-17T22:41:20.059Z,13.85
2024-01-17T22:43:49.782Z,15.10
2024-01-17T22:46:18.246Z,14.45
2024-01-17T22:48:46.588Z,12.93
2024-01-17T22:51:15.007Z,13.70
2024-01-17T22:53:43.550Z,13.95
2024-01-17T22:56:14.497Z,13.43
2024-01-17T22:58:44.158Z,14.45
2024-01-17T23:01:13.808Z,14.60
2024-01-17T23:03:43.379Z,13.98
2024-01-17T23:06:12.062Z,13.77
2024-01-17T23:08:40.429Z,14.02
2024-01-17T23:11:20.265Z,15.60
2024-01-17T23:13:53.052Z,14.25
2024-01-17T23:16:23.581Z,15.82
2024-01-17T23:18:52.545Z,15.43
2024-01-17T23:21:21.179Z,14.55
2024-01-17T23:23:49.544Z,14.07
2024-01-17T23:26:17.956Z,13.90
2024-01-17T23:28:46.390Z,11.52
2024-01-17T23:31:16.350Z,12.25
2024-01-17T23:33:46.279Z,11.18
2024-01-17T23:36:15.241Z,12.35
2024-01-17T23:38:44.042Z,11.93
2024-01-17T23:41:12.371Z,11.15
2024-01-17T23:43:40.751Z,11.23
2024-01-17T23:46:09.208Z,11.80
2024-01-17T23:48:37.722Z,11.57
2024-01-17T23:51:07.617Z,13.15
2024-01-17T23:53:36.078Z,11.90
2024-01-17T23:56:04.859Z,13.13
2024-01-17T23:58:33.303Z,13.70
